Terminal Aerodrome Forecast
Issued by NWS Upton, NY

Home | Current Version | Previous Version | Text Only | Print | Product List | Glossary On
Versions: 1 2 3 4 5 6 7 8 9 10 11 12 13 14 15 16 17 18 19 20 21 22 23 24 25
000
FTUS41 KOKX 251722
TAFISP
TAF
KISP 251722Z 2518/2618 21013KT P6SM FEW025 SCT250
     FM252100 18012KT P6SM BKN050 BKN250
      TEMPO 2521/2601 27020G35KT 4SM TSRA BKN040CB
     FM260100 26008KT 5SM -SHRA BR BKN040 BKN100
     FM260300 26005KT P6SM BKN050 BKN250
     FM261100 32008KT P6SM SCT250
     FM261600 32010KT P6SM SCT050 SCT250=

USA.gov is the U.S. government's official web portal to all federal, state and local government web resources and services.